Time;durP1;ratioP1;P1;durP2;ratioP2;P2;SDS_P1;SDS_P2;PMS_P1;PMS_P2;Temp;Humidity;BMP_temperature;BMP_pressure;BME280_temperature;BME280_humidity;BME280_pressure;Samples;Min_cycle;Max_cycle;Signal;HPM_P1;HPM_P2
2022/06/19 00:01:27;;;;;;;15.38;5.22;;;;;;;27.31;40.44;99931.66;4146248;28;20070;-69
2022/06/19 00:03:33;;;;;;;14.85;4.22;;;;;;;27.22;40.89;99927.75;4147408;28;20048;-70
2022/06/19 00:05:38;;;;;;;11.43;3.63;;;;;;;27.17;40.94;99930.72;4147725;28;20548;-69
2022/06/19 00:07:41;;;;;;;17.30;4.43;;;;;;;27.12;40.99;99931.97;4147592;28;20137;-69
2022/06/19 00:09:44;;;;;;;15.93;4.63;;;;;;;27.04;41.34;99924.44;4146450;28;20042;-69
2022/06/19 00:11:47;;;;;;;19.38;4.63;;;;;;;27.04;41.46;99924.44;4147264;28;20132;-69
2022/06/19 00:13:50;;;;;;;16.83;4.10;;;;;;;27.07;41.55;99910.06;4147588;28;20041;-69
2022/06/19 00:15:53;;;;;;;16.98;5.03;;;;;;;27.00;42.10;99896.25;4162570;28;20045;-69
2022/06/19 00:17:56;;;;;;;21.70;5.53;;;;;;;27.13;41.11;99880.28;4146319;28;20076;-69
2022/06/19 00:19:59;;;;;;;16.42;4.75;;;;;;;26.94;41.23;99869.94;4147493;28;20048;-69
2022/06/19 00:22:04;;;;;;;21.75;4.45;;;;;;;26.80;41.27;99871.69;4146058;28;20046;-69
2022/06/19 00:24:07;;;;;;;12.90;4.65;;;;;;;26.71;41.12;99869.59;4147511;28;20092;-69
2022/06/19 00:26:11;;;;;;;15.60;4.88;;;;;;;26.75;41.50;99864.94;4162701;28;20457;-69
2022/06/19 00:28:14;;;;;;;16.80;4.60;;;;;;;26.76;40.94;99862.16;4147526;28;20514;-69
2022/06/19 00:30:17;;;;;;;19.27;5.18;;;;;;;26.72;40.93;99860.66;4146237;28;20504;-69
2022/06/19 00:32:20;;;;;;;20.63;4.85;;;;;;;26.79;40.77;99861.97;4145834;28;20038;-69
2022/06/19 00:34:23;;;;;;;22.48;5.13;;;;;;;26.79;40.42;99856.63;4147494;28;20042;-69
2022/06/19 00:36:27;;;;;;;16.80;4.75;;;;;;;26.89;40.08;99848.06;4147398;28;20133;-69
2022/06/19 00:38:32;;;;;;;14.65;4.95;;;;;;;26.83;40.20;99852.81;4148850;28;20489;-69
2022/06/19 00:40:35;;;;;;;17.75;5.32;;;;;;;26.94;39.93;99849.47;4149228;28;20141;-69
2022/06/19 00:42:38;;;;;;;23.95;4.85;;;;;;;26.90;39.73;99844.44;4148769;28;20038;-69
2022/06/19 00:44:41;;;;;;;15.48;3.35;;;;;;;26.90;39.67;99844.44;4149355;28;20778;-69
2022/06/19 00:46:49;;;;;;;23.37;4.97;;;;;;;26.98;38.57;99834.13;4149221;28;20117;-69
2022/06/19 00:48:52;;;;;;;13.63;4.05;;;;;;;26.90;39.58;99841.78;4165550;28;20041;-69
2022/06/19 00:50:59;;;;;;;17.27;3.80;;;;;;;26.89;39.91;99840.06;4150617;28;20050;-69
2022/06/19 00:53:05;;;;;;;26.17;6.03;;;;;;;26.98;39.36;99840.34;4150079;28;20405;-69
2022/06/19 00:55:14;;;;;;;19.67;4.82;;;;;;;26.96;39.37;99830.72;4150381;28;20133;-69
2022/06/19 00:57:18;;;;;;;17.90;5.13;;;;;;;26.97;39.01;99837.75;4150380;28;20065;-69
2022/06/19 00:59:23;;;;;;;14.88;3.90;;;;;;;26.92;39.17;99839.88;4150317;28;20041;-69
2022/06/19 01:01:28;;;;;;;11.43;3.78;;;;;;;26.87;39.17;99837.50;4148954;28;20037;-69
2022/06/19 01:03:39;;;;;;;20.27;4.88;;;;;;;26.88;39.54;99831.19;4148805;28;20465;-69
2022/06/19 01:05:44;;;;;;;16.02;4.78;;;;;;;26.86;39.37;99818.91;4150259;28;20077;-69
2022/06/19 01:07:47;;;;;;;20.08;5.47;;;;;;;26.88;39.67;99825.84;4149055;28;20132;-69
2022/06/19 01:09:51;;;;;;;15.88;4.18;;;;;;;26.82;39.84;99816.47;4148977;28;20040;-70
2022/06/19 01:11:56;;;;;;;17.50;4.63;;;;;;;26.79;39.58;99819.28;4149740;28;20052;-69
2022/06/19 01:13:59;;;;;;;16.42;4.28;;;;;;;26.77;39.46;99815.88;4150116;28;20038;-69
2022/06/19 01:16:04;;;;;;;20.65;4.78;;;;;;;26.80;39.17;99815.69;4148886;28;20041;-69
2022/06/19 01:18:09;;;;;;;24.10;4.57;;;;;;;26.86;39.31;99802.91;4149029;28;20048;-69
2022/06/19 01:20:14;;;;;;;20.80;4.82;;;;;;;26.87;38.93;99804.59;4149961;28;20038;-69
2022/06/19 01:22:26;;;;;;;19.42;5.03;;;;;;;26.82;39.15;99808.47;4149807;28;20038;-69
2022/06/19 01:24:39;;;;;;;21.33;5.38;;;;;;;26.82;39.21;99807.56;4148892;28;20044;-69
2022/06/19 01:26:47;;;;;;;17.42;5.43;;;;;;;26.83;39.19;99803.97;4149941;28;20038;-68
2022/06/19 01:28:56;;;;;;;19.17;4.35;;;;;;;26.82;39.19;99805.78;4149872;28;20060;-68
2022/06/19 01:31:00;;;;;;;20.38;4.85;;;;;;;26.70;39.38;99806.56;4164921;28;20065;-69
2022/06/19 01:33:08;;;;;;;17.08;4.22;;;;;;;26.67;39.68;99801.38;4149462;28;20118;-69
2022/06/19 01:35:11;;;;;;;15.90;3.50;;;;;;;26.64;39.48;99799.75;4149836;28;20042;-69
2022/06/19 01:37:18;;;;;;;12.88;4.05;;;;;;;26.61;39.89;99793.78;4149759;28;20038;-68
2022/06/19 01:39:23;;;;;;;19.85;4.70;;;;;;;26.61;39.78;99791.13;4150085;28;20053;-69
2022/06/19 01:41:28;;;;;;;18.80;4.88;;;;;;;26.61;39.91;99793.78;4149518;28;20060;-69
2022/06/19 01:43:34;;;;;;;22.30;5.07;;;;;;;26.62;39.46;99798.16;4149503;28;20121;-69
2022/06/19 01:45:40;;;;;;;19.83;4.72;;;;;;;26.55;39.87;99792.38;4149674;28;20042;-69
2022/06/19 01:47:44;;;;;;;17.98;4.18;;;;;;;26.56;40.06;99791.41;4149597;28;20046;-69
2022/06/19 01:49:50;;;;;;;16.90;4.32;;;;;;;26.49;40.32;99784.75;4149368;28;20125;-69
2022/06/19 01:51:53;;;;;;;10.55;3.53;;;;;;;26.45;40.78;99792.06;4149142;28;20038;-69
2022/06/19 01:54:00;;;;;;;8.90;3.10;;;;;;;26.38;40.65;99788.09;4149484;28;20042;-69
2022/06/19 01:56:04;;;;;;;17.75;4.40;;;;;;;26.32;40.42;99796.47;4149452;28;20073;-70
2022/06/19 01:58:08;;;;;;;17.15;4.25;;;;;;;26.32;40.69;99791.13;4149331;28;20042;-69
2022/06/19 02:00:15;;;;;;;14.38;4.18;;;;;;;26.33;40.81;99789.31;4149471;28;20639;-69
2022/06/19 02:02:19;;;;;;;15.65;3.72;;;;;;;26.35;40.79;99792.75;4164080;28;20052;-70
2022/06/19 02:04:24;;;;;;;19.95;3.67;;;;;;;26.32;40.83;99788.47;4149317;28;20038;-69
2022/06/19 02:06:30;;;;;;;11.10;3.25;;;;;;;26.21;41.13;99790.94;4149212;28;20465;-69
2022/06/19 02:08:35;;;;;;;11.10;3.35;;;;;;;26.13;40.98;99794.94;4149272;28;20576;-69
2022/06/19 02:10:40;;;;;;;14.90;3.72;;;;;;;25.98;40.92;99790.53;4148021;28;20090;-69
2022/06/19 02:12:43;;;;;;;19.40;4.93;;;;;;;25.89;41.02;99797.25;4148819;28;20054;-69
2022/06/19 02:14:46;;;;;;;17.15;4.30;;;;;;;25.91;40.91;99798.00;4164104;28;20048;-69
2022/06/19 02:16:51;;;;;;;14.13;3.70;;;;;;;25.86;40.93;99796.56;4147987;28;20038;-69
2022/06/19 02:18:55;;;;;;;12.55;3.78;;;;;;;25.85;41.03;99802.88;4149311;28;20045;-69
2022/06/19 02:20:58;;;;;;;11.18;3.83;;;;;;;25.87;41.12;99793.81;4147756;28;20050;-69
2022/06/19 02:23:05;;;;;;;23.45;5.50;;;;;;;25.92;41.09;99790.91;4147463;28;20037;-68
2022/06/19 02:25:09;;;;;;;19.88;5.32;;;;;;;25.99;41.45;99781.56;4148940;28;20046;-68
2022/06/19 02:27:12;;;;;;;16.15;4.00;;;;;;;25.94;41.71;99787.16;4148792;28;20060;-68
2022/06/19 02:29:21;;;;;;;16.80;3.97;;;;;;;25.93;41.96;99785.47;4148887;28;20042;-68
2022/06/19 02:31:24;;;;;;;18.50;3.70;;;;;;;25.94;42.12;99778.34;4147390;28;20408;-67
2022/06/19 02:33:31;;;;;;;15.05;4.25;;;;;;;25.87;42.69;99784.97;4147297;28;20038;-68
2022/06/19 02:35:35;;;;;;;16.55;4.35;;;;;;;25.84;43.03;99779.84;4148870;28;20078;-68
2022/06/19 02:37:43;;;;;;;17.00;4.38;;;;;;;25.79;43.07;99773.00;4148702;28;20038;-68
2022/06/19 02:39:53;;;;;;;12.27;3.45;;;;;;;25.71;43.30;99777.91;4131261;28;20145;-68
2022/06/19 02:42:04;;;;;;;14.57;4.05;;;;;;;25.70;43.19;99788.66;4148076;28;20038;-68
2022/06/19 02:44:07;;;;;;;9.75;3.90;;;;;;;25.67;43.27;99779.06;4147468;28;20512;-68
2022/06/19 02:46:10;;;;;;;15.80;3.90;;;;;;;25.68;43.03;99774.59;4148596;28;20108;-68
2022/06/19 02:48:20;;;;;;;17.83;4.40;;;;;;;25.69;43.16;99771.81;4148652;28;20042;-68
2022/06/19 02:50:28;;;;;;;17.85;4.43;;;;;;;25.65;43.40;99774.78;4148521;28;20293;-68
2022/06/19 02:52:31;;;;;;;23.90;3.85;;;;;;;25.63;43.35;99784.63;4148270;28;20042;-68
2022/06/19 02:54:34;;;;;;;12.77;3.38;;;;;;;25.57;43.42;99785.88;4131127;28;20132;-67
2022/06/19 02:56:37;;;;;;;18.30;4.43;;;;;;;25.47;43.59;99790.03;4148469;28;20053;-68
2022/06/19 02:58:40;;;;;;;19.40;4.70;;;;;;;25.47;43.84;99774.06;4148476;28;20038;-68
2022/06/19 03:00:43;;;;;;;15.13;4.85;;;;;;;25.47;43.92;99774.06;4147832;28;20403;-68
2022/06/19 03:02:46;;;;;;;13.38;4.03;;;;;;;25.50;43.75;99768.56;4148064;28;20061;-68
2022/06/19 03:04:54;;;;;;;19.60;4.05;;;;;;;25.42;44.22;99766.31;4148443;28;20049;-68
2022/06/19 03:06:58;;;;;;;14.35;4.05;;;;;;;25.38;44.39;99760.34;4148432;28;20052;-68
2022/06/19 03:09:01;;;;;;;16.25;3.92;;;;;;;25.33;44.18;99757.06;4163405;28;20049;-67
2022/06/19 03:11:04;;;;;;;17.95;4.88;;;;;;;25.33;44.20;99750.91;4148322;28;20497;-67
2022/06/19 03:13:07;;;;;;;15.68;3.55;;;;;;;25.23;44.44;99755.88;4163069;28;20521;-67
2022/06/19 03:15:12;;;;;;;15.18;3.83;;;;;;;25.20;44.61;99748.06;4148253;28;20041;-67
2022/06/19 03:17:16;;;;;;;13.60;4.05;;;;;;;25.19;44.82;99749.00;4148270;28;20064;-67
2022/06/19 03:19:20;;;;;;;12.82;3.97;;;;;;;25.12;44.74;99753.84;4147035;28;20041;-67
2022/06/19 03:21:23;;;;;;;18.15;4.30;;;;;;;25.09;44.95;99746.88;4148017;28;20037;-68
2022/06/19 03:23:27;;;;;;;19.40;4.32;;;;;;;25.09;44.89;99748.69;4147841;28;20063;-68
2022/06/19 03:25:30;;;;;;;18.70;3.78;;;;;;;25.06;45.16;99748.88;4146949;28;20048;-68
2022/06/19 03:27:33;;;;;;;17.98;4.28;;;;;;;25.02;45.12;99748.19;4148078;28;20052;-68
2022/06/19 03:29:36;;;;;;;11.05;3.60;;;;;;;25.02;44.91;99758.81;4148024;28;20115;-68
2022/06/19 03:31:39;;;;;;;14.05;3.78;;;;;;;24.99;44.89;99761.66;4146597;28;20038;-68
2022/06/19 03:33:42;;;;;;;10.93;3.67;;;;;;;25.00;44.72;99759.84;4146734;28;20444;-68
2022/06/19 03:35:45;;;;;;;13.88;4.00;;;;;;;25.04;44.72;99759.63;4148000;28;20103;-68
2022/06/19 03:37:48;;;;;;;16.02;3.63;;;;;;;25.08;44.51;99755.81;4147938;28;20042;-68
2022/06/19 03:39:52;;;;;;;11.27;3.30;;;;;;;25.11;44.73;99751.28;4147911;28;20137;-68
2022/06/19 03:41:55;;;;;;;;;;;;;;;24.94;45.08;99755.78;4146571;28;20030;-68
2022/06/19 03:43:58;;;;;;;12.40;3.95;;;;;;;24.98;44.73;99761.75;4163062;28;20412;-68
2022/06/19 03:46:01;;;;;;;11.90;3.22;;;;;;;25.01;44.67;99751.78;4147923;28;20312;-68
2022/06/19 03:48:05;;;;;;;9.10;3.15;;;;;;;25.01;44.56;99749.13;4147845;28;20048;-68
2022/06/19 03:50:09;;;;;;;15.65;3.88;;;;;;;25.06;44.45;99755.06;4162832;28;20048;-67
2022/06/19 03:52:12;;;;;;;;;;;;;;;24.94;44.74;99747.78;4147941;28;20038;-69
2022/06/19 03:54:15;;;;;;;17.83;3.78;;;;;;;25.02;44.72;99750.84;4147817;28;19936;-69
2022/06/19 03:56:22;;;;;;;20.02;4.70;;;;;;;25.07;44.63;99756.78;4146402;28;20413;-69
2022/06/19 03:58:45;;;;;;;18.52;4.93;;;;;;;25.04;44.80;99758.72;4147762;28;20062;-68
2022/06/19 04:00:48;;;;;;;15.38;4.43;;;;;;;24.98;45.14;99761.75;4146496;28;20037;-68
2022/06/19 04:02:50;;;;;;;26.73;4.72;;;;;;;24.97;45.34;99754.72;4147332;28;20524;-68
2022/06/19 04:04:53;;;;;;;11.80;3.95;;;;;;;24.97;45.50;99760.91;4147710;28;20121;-68
2022/06/19 04:06:56;;;;;;;17.35;4.30;;;;;;;24.97;45.67;99757.38;4147647;28;20045;-68
2022/06/19 04:09:00;;;;;;;17.50;4.28;;;;;;;24.97;46.46;99758.25;4147666;28;20048;-68
2022/06/19 04:11:03;;;;;;;9.68;3.58;;;;;;;24.93;46.82;99759.38;4147607;28;20065;-69
2022/06/19 04:13:07;;;;;;;12.82;3.38;;;;;;;24.93;47.15;99762.03;4148094;28;20527;-69
2022/06/19 04:15:11;;;;;;;16.33;3.33;;;;;;;24.89;47.71;99757.81;4150989;28;20044;-69
2022/06/19 04:17:14;;;;;;;18.10;3.92;;;;;;;24.91;47.78;99761.22;4150947;28;20041;-69
2022/06/19 04:19:18;;;;;;;11.10;3.35;;;;;;;24.90;47.98;99765.69;4150907;28;20048;-69
2022/06/19 04:21:24;;;;;;;13.10;3.33;;;;;;;24.98;48.00;99769.72;4150927;28;20530;-69
2022/06/19 04:23:28;;;;;;;16.50;4.00;;;;;;;24.97;48.22;99771.53;4149392;28;20038;-68
2022/06/19 04:25:31;;;;;;;;;;;;;;;24.88;48.01;99766.72;4166436;28;20136;-68
2022/06/19 04:27:37;;;;;;;12.40;3.47;;;;;;;24.98;48.43;99767.06;4150865;28;19929;-68
2022/06/19 04:29:41;;;;;;;13.55;4.18;;;;;;;25.04;48.47;99770.25;4150837;28;20129;-68
2022/06/19 04:31:44;;;;;;;;;;;;;;;24.90;49.08;99764.84;4149520;28;20038;-68
2022/06/19 04:33:47;;;;;;;13.70;3.90;;;;;;;24.96;48.59;99759.19;4150566;28;19925;-68
2022/06/19 04:35:49;;;;;;;16.65;4.45;;;;;;;25.11;47.78;99759.25;4150661;28;20046;-68
2022/06/19 04:37:53;;;;;;;12.10;3.92;;;;;;;25.12;47.56;99759.16;4150654;28;20159;-68
2022/06/19 04:39:56;;;;;;;12.18;3.83;;;;;;;25.09;47.70;99762.84;4150552;28;20046;-68
2022/06/19 04:41:59;;;;;;;12.88;3.85;;;;;;;25.09;46.73;99757.53;4165121;28;20045;-68
2022/06/19 04:44:03;;;;;;;12.80;4.18;;;;;;;25.19;47.32;99760.53;4150589;28;20412;-68
2022/06/19 04:46:08;;;;;;;13.20;3.80;;;;;;;25.18;46.75;99755.28;4150542;28;20050;-68
2022/06/19 04:48:13;;;;;;;12.38;4.03;;;;;;;25.29;46.36;99759.97;4150480;28;20140;-68
2022/06/19 04:50:16;;;;;;;10.43;3.55;;;;;;;25.30;46.73;99759.03;4165475;28;20037;-68
2022/06/19 04:52:19;;;;;;;10.80;3.30;;;;;;;25.33;46.28;99756.22;4150033;28;20378;-68
2022/06/19 04:54:22;;;;;;;15.25;3.90;;;;;;;25.43;45.59;99758.25;4150319;28;20088;-68
2022/06/19 04:56:25;;;;;;;19.58;4.70;;;;;;;25.51;45.35;99748.97;4150395;28;20038;-68
2022/06/19 04:58:28;;;;;;;14.32;3.17;;;;;;;25.49;44.81;99753.53;4150375;28;20048;-68
2022/06/19 05:00:32;;;;;;;12.35;4.07;;;;;;;25.50;44.74;99749.94;4150322;28;20065;-67
2022/06/19 05:02:38;;;;;;;14.25;3.58;;;;;;;25.56;45.59;99746.91;4149190;28;20052;-68
2022/06/19 05:04:41;;;;;;;20.58;4.72;;;;;;;25.64;44.79;99738.44;4132651;28;20069;-68
2022/06/19 05:06:43;;;;;;;17.50;3.88;;;;;;;25.50;44.74;99747.25;4150237;28;20125;-68
2022/06/19 05:08:47;;;;;;;14.95;4.30;;;;;;;25.50;44.43;99752.59;4147499;28;20046;-68
2022/06/19 05:10:50;;;;;;;20.57;4.43;;;;;;;25.64;44.85;99757.91;4148485;28;20046;-68
2022/06/19 05:12:55;;;;;;;12.25;3.85;;;;;;;25.66;44.90;99758.69;4149682;28;20129;-68
2022/06/19 05:14:58;;;;;;;15.18;3.30;;;;;;;25.71;44.80;99761.94;4149925;28;20477;-68
2022/06/19 05:17:02;;;;;;;12.73;4.13;;;;;;;25.79;44.34;99756.16;4148188;28;20520;-68
2022/06/19 05:19:06;;;;;;;15.40;3.90;;;;;;;25.89;43.55;99756.44;4147668;28;20038;-69
2022/06/19 05:21:10;;;;;;;;;;;;;;;25.68;44.24;99755.94;4167430;28;20132;-69
2022/06/19 05:23:13;;;;;;;18.52;4.57;;;;;;;25.86;43.98;99745.97;4148732;28;19936;-68
2022/06/19 05:25:16;;;;;;;17.25;4.40;;;;;;;25.95;44.18;99751.59;4133105;28;20038;-69
2022/06/19 05:27:19;;;;;;;15.05;3.53;;;;;;;25.99;43.21;99762.91;4133806;28;20038;-69
2022/06/19 05:29:22;;;;;;;21.73;5.00;;;;;;;25.99;43.71;99754.94;4148112;28;20117;-69
2022/06/19 05:31:26;;;;;;;11.30;3.45;;;;;;;26.00;44.00;99755.84;4149680;28;20129;-69
2022/06/19 05:33:31;;;;;;;17.95;4.85;;;;;;;26.02;43.78;99752.13;4149284;28;20042;-69
2022/06/19 05:35:35;;;;;;;14.75;4.53;;;;;;;26.17;44.29;99745.00;4149774;28;20496;-69
2022/06/19 05:37:38;;;;;;;;;;;;;;;25.96;44.11;99747.13;4148638;28;20307;-69
2022/06/19 05:39:40;;;;;;;16.75;4.70;;;;;;;26.03;43.96;99752.97;4149455;28;19921;-69
2022/06/19 05:41:43;;;;;;;21.23;5.03;;;;;;;26.24;43.63;99749.00;4147845;28;20041;-68
2022/06/19 05:43:49;;;;;;;13.25;3.75;;;;;;;26.23;44.02;99749.09;4149204;28;20056;-69
2022/06/19 05:45:53;;;;;;;11.45;3.63;;;;;;;26.32;43.59;99756.50;4149621;28;20406;-69
2022/06/19 05:47:56;;;;;;;13.77;3.78;;;;;;;26.35;44.22;99750.13;4149390;28;20482;-69
2022/06/19 05:50:06;;;;;;;21.17;4.45;;;;;;;26.44;43.79;99753.03;4149584;28;20064;-69
2022/06/19 05:52:17;;;;;;;21.20;4.57;;;;;;;26.56;43.84;99753.22;4147706;28;20046;-69
2022/06/19 05:54:20;;;;;;;17.70;4.53;;;;;;;26.63;43.92;99754.53;4149441;28;20128;-69
2022/06/19 05:56:24;;;;;;;15.65;3.92;;;;;;;26.55;43.58;99751.53;4149251;28;20034;-69
2022/06/19 05:58:27;;;;;;;15.23;4.95;;;;;;;26.68;43.87;99746.28;4149419;28;20030;-69
2022/06/19 06:00:29;;;;;;;15.88;5.05;;;;;;;26.76;43.71;99755.50;4148930;28;20443;-69
2022/06/19 06:02:33;;;;;;;15.30;4.25;;;;;;;26.80;44.31;99740.16;4148965;28;20038;-69
2022/06/19 06:04:42;;;;;;;19.67;5.60;;;;;;;26.92;43.31;99744.69;4147769;28;20037;-69
2022/06/19 06:06:45;;;;;;;17.50;4.68;;;;;;;26.77;43.14;99740.38;4148479;28;20037;-69
2022/06/19 06:08:49;;;;;;;19.98;4.50;;;;;;;26.73;43.19;99761.03;4146700;28;20252;-69
2022/06/19 06:10:52;;;;;;;14.75;4.93;;;;;;;26.80;42.75;99757.00;4150079;28;20046;-69
2022/06/19 06:12:56;;;;;;;16.85;4.20;;;;;;;26.89;42.92;99760.03;4132482;28;20442;-69
2022/06/19 06:14:59;;;;;;;16.95;5.00;;;;;;;26.84;42.91;99752.34;4132932;28;20137;-69
2022/06/19 06:17:02;;;;;;;17.05;4.78;;;;;;;26.97;43.20;99747.03;4147831;28;20390;-69
2022/06/19 06:19:04;;;;;;;18.55;6.32;;;;;;;27.12;43.01;99739.84;4147711;28;20133;-69
2022/06/19 06:21:11;;;;;;;17.67;6.07;;;;;;;27.00;42.89;99754.88;4149005;28;20532;-69
2022/06/19 06:23:14;;;;;;;20.65;5.13;;;;;;;27.02;42.94;99757.44;4147159;28;20112;-69
2022/06/19 06:25:18;;;;;;;17.75;5.55;;;;;;;27.01;42.63;99759.22;4148878;28;20042;-69
2022/06/19 06:27:23;;;;;;;11.70;3.50;;;;;;;27.09;43.28;99770.25;4147282;28;20124;-69
2022/06/19 06:29:26;;;;;;;21.67;5.90;;;;;;;27.21;42.95;99760.59;4148722;28;20034;-69
2022/06/19 06:31:30;;;;;;;18.20;4.87;;;;;;;27.33;42.80;99758.91;4146734;28;20038;-69
2022/06/19 06:33:33;;;;;;;19.33;5.23;;;;;;;27.27;42.62;99764.66;4148427;28;20030;-69
2022/06/19 06:35:36;;;;;;;14.90;4.68;;;;;;;27.25;42.52;99763.88;4147876;28;20029;-70
2022/06/19 06:37:39;;;;;;;18.80;4.50;;;;;;;27.29;42.80;99762.72;4148378;28;20050;-69
2022/06/19 06:39:45;;;;;;;21.30;5.80;;;;;;;27.45;42.15;99763.47;4148707;28;20052;-69
2022/06/19 06:41:50;;;;;;;16.15;4.47;;;;;;;27.41;42.62;99756.63;4148002;28;20076;-70
2022/06/19 06:43:54;;;;;;;15.80;4.90;;;;;;;27.53;43.05;99754.94;4148826;28;20037;-70
2022/06/19 06:46:04;;;;;;;20.20;4.68;;;;;;;27.56;42.86;99762.72;4142239;28;20065;-70
2022/06/19 06:48:07;;;;;;;21.02;5.65;;;;;;;27.64;42.96;99764.88;4149839;28;20049;-69
2022/06/19 06:50:10;;;;;;;16.10;4.55;;;;;;;27.68;43.43;99753.03;4148436;28;20125;-69
2022/06/19 06:52:13;;;;;;;23.87;5.50;;;;;;;27.75;43.34;99754.31;4148126;28;20038;-69
2022/06/19 06:54:19;;;;;;;18.95;6.15;;;;;;;27.82;42.79;99750.25;4147260;28;20038;-69
2022/06/19 06:56:22;;;;;;;13.45;5.13;;;;;;;27.78;43.07;99753.25;4147312;28;20053;-70
2022/06/19 06:58:26;;;;;;;17.30;5.95;;;;;;;27.85;42.67;99754.53;4151360;28;20041;-69
2022/06/19 07:00:29;;;;;;;16.23;6.53;;;;;;;27.99;42.79;99746.44;4148164;28;20046;-69
2022/06/19 07:02:32;;;;;;;21.05;6.47;;;;;;;28.00;42.16;99745.47;4146625;28;20052;-70
2022/06/19 07:04:35;;;;;;;28.45;6.30;;;;;;;28.26;42.89;99753.47;4132076;28;20046;-70
2022/06/19 07:06:41;;;;;;;14.52;5.05;;;;;;;28.13;42.85;99756.16;4132940;28;20133;-69
2022/06/19 07:08:44;;;;;;;17.48;6.15;;;;;;;28.14;42.52;99757.88;4147095;28;20042;-70
2022/06/19 07:10:47;;;;;;;14.95;5.13;;;;;;;28.15;42.87;99754.25;4130785;28;20054;-69
2022/06/19 07:12:50;;;;;;;22.05;6.40;;;;;;;28.28;42.77;99761.38;4147862;28;20064;-70
2022/06/19 07:14:54;;;;;;;16.70;7.03;;;;;;;28.42;42.87;99769.28;4148060;28;20041;-70
2022/06/19 07:16:57;;;;;;;16.85;5.25;;;;;;;28.45;42.67;99758.34;4130499;28;20133;-74
2022/06/19 07:19:00;;;;;;;24.00;6.53;;;;;;;28.66;42.34;99761.31;4131611;28;20042;-74
2022/06/19 07:21:03;;;;;;;22.52;6.72;;;;;;;28.69;41.85;99765.59;4146196;28;20045;-74
2022/06/19 07:23:09;;;;;;;20.92;7.07;;;;;;;28.72;42.41;99758.22;4147428;28;20491;-73
2022/06/19 07:25:16;;;;;;;21.10;6.57;;;;;;;28.82;41.58;99761.06;4146939;28;20576;-75
2022/06/19 07:27:19;;;;;;;18.35;5.95;;;;;;;28.97;42.20;99764.44;4147457;28;20064;-75
2022/06/19 07:29:23;;;;;;;20.58;5.38;;;;;;;28.96;41.94;99759.22;4147743;28;20120;-75
2022/06/19 07:31:27;;;;;;;14.80;6.45;;;;;;;28.93;41.73;99764.75;4162111;28;20072;-77
2022/06/19 07:33:30;;;;;;;15.63;5.72;;;;;;;28.98;42.24;99765.28;4147538;28;20040;-77
2022/06/19 07:35:33;;;;;;;15.75;5.93;;;;;;;29.03;42.04;99757.75;4130329;28;20074;-77
2022/06/19 07:37:36;;;;;;;14.50;5.90;;;;;;;29.03;42.16;99749.72;4147064;28;20037;-76
2022/06/19 07:39:39;;;;;;;17.50;5.90;;;;;;;29.11;42.56;99758.06;4147382;28;20045;-76
2022/06/19 07:41:42;;;;;;;18.13;6.70;;;;;;;29.16;42.44;99757.69;4147415;28;20464;-73
2022/06/19 07:43:45;;;;;;;19.77;5.97;;;;;;;29.23;42.31;99758.97;4139697;28;20409;-74
2022/06/19 07:45:50;;;;;;;18.17;6.57;;;;;;;29.31;42.63;99763.78;4131465;28;20081;-74
2022/06/19 07:50:15;;;;;;;19.05;6.15;;;;;;;29.43;41.98;99761.00;4147640;28;20045;-75
2022/06/19 07:52:18;;;;;;;18.55;6.22;;;;;;;29.51;42.05;99756.88;4146485;28;20444;-73
2022/06/19 07:54:21;;;;;;;13.30;5.65;;;;;;;29.54;42.46;99762.88;4129822;28;20047;-76
2022/06/19 07:56:24;;;;;;;21.10;6.97;;;;;;;29.62;42.53;99742.69;4145300;28;20113;-74
2022/06/19 07:58:27;;;;;;;17.55;5.55;;;;;;;29.66;42.60;99745.00;4147261;28;20042;-78
2022/06/19 08:00:32;;;;;;;13.38;5.70;;;;;;;29.66;41.19;99738.78;4146154;28;20416;-77
2022/06/19 08:02:35;;;;;;;12.02;5.57;;;;;;;29.65;41.02;99737.94;4145418;28;20042;-74
2022/06/19 08:04:40;;;;;;;12.18;5.63;;;;;;;29.81;40.34;99740.28;4145934;28;20061;-74
2022/06/19 08:06:44;;;;;;;10.07;5.20;;;;;;;29.86;40.52;99731.91;4143036;28;20054;-75
2022/06/19 08:08:48;;;;;;;15.85;6.45;;;;;;;29.97;39.79;99725.72;4147207;28;20406;-77
2022/06/19 08:10:52;;;;;;;9.10;5.00;;;;;;;29.90;39.49;99728.00;4147918;28;20042;-76
2022/06/19 08:12:57;;;;;;;11.55;5.57;;;;;;;29.94;39.81;99740.22;4147018;28;20699;-78
2022/06/19 08:14:59;;;;;;;16.65;6.65;;;;;;;30.03;40.09;99730.59;4147410;28;20070;-74
2022/06/19 08:17:03;;;;;;;9.27;5.00;;;;;;;30.05;38.53;99739.34;4145742;28;20034;-75
2022/06/19 08:19:06;;;;;;;14.95;5.75;;;;;;;30.09;37.98;99730.94;4146467;28;20524;-75
2022/06/19 08:21:10;;;;;;;9.70;5.70;;;;;;;30.23;38.02;99732.53;4147226;28;20034;-76
2022/06/19 08:23:13;;;;;;;12.45;5.72;;;;;;;30.40;37.88;99735.69;4146979;28;20502;-76
2022/06/19 08:25:18;;;;;;;9.97;4.90;;;;;;;30.44;37.70;99729.97;4146535;28;20133;-78
2022/06/19 08:27:21;;;;;;;13.63;6.63;;;;;;;30.50;37.22;99727.78;4145816;28;20384;-77
2022/06/19 08:29:25;;;;;;;12.30;5.45;;;;;;;30.57;37.22;99724.47;4145019;28;20042;-75
2022/06/19 08:31:29;;;;;;;11.65;5.50;;;;;;;30.72;36.82;99722.34;4139455;28;20042;-74
2022/06/19 08:33:32;;;;;;;18.05;6.55;;;;;;;30.70;36.40;99729.69;4146345;28;20046;-74
2022/06/19 08:35:40;;;;;;;16.38;5.60;;;;;;;30.71;35.94;99723.34;4146435;28;20042;-76
2022/06/19 08:37:47;;;;;;;12.10;4.93;;;;;;;30.73;35.86;99728.59;4147088;28;20492;-75
2022/06/19 08:39:50;;;;;;;10.75;5.65;;;;;;;30.85;36.17;99738.31;4146376;28;20128;-75
2022/06/19 08:42:21;;;;;;;14.48;5.90;;;;;;;30.91;35.72;99723.53;4146499;28;20048;-76
2022/06/19 08:44:37;;;;;;;11.85;4.93;;;;;;;30.92;36.34;99722.56;4133729;28;20054;-74
2022/06/19 08:46:49;;;;;;;17.98;5.53;;;;;;;31.05;35.54;99730.47;4142901;28;20041;-74
2022/06/19 08:49:11;;;;;;;11.05;5.40;;;;;;;31.06;35.77;99730.34;4147041;28;20034;-74
2022/06/19 08:51:25;;;;;;;15.80;5.22;;;;;;;31.07;35.62;99740.09;4145557;28;20053;-75
2022/06/19 08:53:39;;;;;;;;;;;;;;;31.12;35.95;99739.72;4146815;28;20488;-77
2022/06/19 08:55:46;;;;;;;11.55;5.38;;;;;;;31.37;35.70;99740.34;4162417;28;19927;-78
2022/06/19 08:58:06;;;;;;;9.40;4.50;;;;;;;31.38;35.47;99739.34;4146144;28;20420;-73
2022/06/19 09:00:16;;;;;;;9.80;4.50;;;;;;;31.42;34.63;99730.88;4164658;28;20060;-75
2022/06/19 09:02:35;;;;;;;6.97;4.55;;;;;;;31.51;34.38;99734.63;4142698;28;20554;-73
2022/06/19 09:07:16;;;;;;;11.45;4.88;;;;;;;31.70;33.06;99738.47;4148242;28;20049;-76
2022/06/19 09:09:36;;;;;;;11.30;4.95;;;;;;;31.79;32.91;99724.22;4141399;28;20307;-76
2022/06/19 09:12:05;;;;;;;8.80;4.75;;;;;;;31.88;31.95;99718.06;4139101;28;20038;-74
2022/06/19 09:14:24;;;;;;;18.23;4.85;;;;;;;31.94;32.24;99714.81;4148104;28;20058;-76
2022/06/19 09:16:36;;;;;;;21.13;5.22;;;;;;;31.97;32.32;99728.00;4146738;28;20026;-77
2022/06/19 09:18:43;;;;;;;9.95;4.53;;;;;;;31.99;32.40;99728.72;4149865;28;20404;-75
2022/06/19 09:20:54;;;;;;;7.93;4.45;;;;;;;32.10;32.82;99729.63;4149161;28;20048;-74
2022/06/19 09:23:14;;;;;;;11.85;4.75;;;;;;;32.26;31.84;99731.84;4149004;28;20514;-76
2022/06/19 09:25:37;;;;;;;7.90;4.18;;;;;;;32.30;31.38;99733.25;4142685;28;20400;-75
2022/06/19 09:27:45;;;;;;;10.63;4.43;;;;;;;32.34;31.35;99735.56;4149952;28;20041;-74
2022/06/19 09:29:54;;;;;;;8.57;4.78;;;;;;;32.38;30.53;99733.44;4148032;28;20408;-72
2022/06/19 09:32:06;;;;;;;12.82;4.07;;;;;;;32.43;30.69;99724.94;4149041;28;20100;-73
2022/06/19 09:34:12;;;;;;;11.35;5.05;;;;;;;32.50;30.82;99731.47;4147378;28;20045;-72
2022/06/19 09:36:24;;;;;;;11.90;4.40;;;;;;;32.58;31.16;99739.72;4149311;28;20513;-74
2022/06/19 09:38:36;;;;;;;9.82;5.05;;;;;;;32.71;30.65;99739.50;4149606;28;20404;-74
2022/06/19 09:40:44;;;;;;;13.35;4.88;;;;;;;32.73;29.98;99742.06;4149548;28;20041;-74
2022/06/19 09:42:54;;;;;;;13.38;5.05;;;;;;;32.82;30.59;99741.22;4147031;28;20038;-74
2022/06/19 09:45:02;;;;;;;10.70;5.05;;;;;;;32.82;30.32;99743.91;4149410;28;20042;-74
2022/06/19 09:47:13;;;;;;;17.73;4.30;;;;;;;32.83;30.44;99748.31;4148850;28;20610;-75
2022/06/19 09:49:24;;;;;;;9.38;4.13;;;;;;;32.93;30.35;99751.84;4148828;28;20042;-74